createdAt,value
2016-09-27T00:00:10.309Z,12.79
2016-09-27T00:01:10.326Z,12.76
2016-09-27T00:02:10.339Z,12.79
2016-09-27T00:03:10.359Z,12.76
2016-09-27T00:04:10.383Z,12.83
2016-09-27T00:05:10.392Z,12.78
2016-09-27T00:06:10.720Z,12.65
2016-09-27T00:07:10.437Z,12.72
2016-09-27T00:08:10.457Z,12.68
2016-09-27T00:09:10.470Z,12.67
2016-09-27T00:10:10.490Z,12.67
2016-09-27T00:11:10.517Z,12.67
2016-09-27T00:12:10.531Z,12.79
2016-09-27T00:13:10.539Z,12.78
2016-09-27T00:14:10.557Z,12.82
2016-09-27T00:15:10.588Z,12.85
2016-09-27T00:16:10.599Z,12.93
2016-09-27T00:17:10.620Z,12.76
2016-09-27T00:18:10.632Z,12.78
2016-09-27T00:19:10.648Z,12.78
2016-09-27T00:20:10.694Z,12.73
2016-09-27T00:21:10.695Z,12.76
2016-09-27T00:22:10.705Z,12.85
2016-09-27T00:23:10.725Z,12.91
2016-09-27T00:24:10.741Z,12.76
2016-09-27T00:25:10.760Z,12.82
2016-09-27T00:26:10.797Z,12.86
2016-09-27T00:27:10.796Z,12.91
2016-09-27T00:28:10.821Z,12.86
2016-09-27T00:29:10.835Z,12.9
2016-09-27T00:30:10.841Z,12.85
2016-09-27T00:31:10.891Z,12.86
2016-09-27T00:32:10.893Z,12.87
2016-09-27T00:33:10.907Z,12.91
2016-09-27T00:34:10.944Z,12.8
2016-09-27T00:35:10.951Z,12.85
2016-09-27T00:36:10.969Z,12.78
2016-09-27T00:37:10.975Z,12.8
2016-09-27T00:38:11.007Z,12.76
2016-09-27T00:39:11.020Z,12.79
2016-09-27T00:40:11.054Z,12.78
2016-09-27T00:41:11.058Z,12.76
2016-09-27T00:42:11.075Z,12.72
2016-09-27T00:43:11.099Z,12.65
2016-09-27T00:44:11.111Z,12.68
2016-09-27T00:45:11.134Z,12.55
2016-09-27T00:46:11.154Z,12.54
2016-09-27T00:47:11.165Z,12.57
2016-09-27T00:48:11.182Z,12.62
2016-09-27T00:49:11.208Z,12.55
2016-09-27T00:50:11.237Z,12.47
2016-09-27T00:51:11.243Z,12.57
2016-09-27T00:52:11.253Z,12.54
2016-09-27T00:53:11.277Z,12.5
2016-09-27T00:54:11.306Z,12.4
2016-09-27T00:55:11.320Z,12.46
2016-09-27T00:56:11.342Z,12.43
2016-09-27T00:57:11.344Z,12.46
2016-09-27T00:58:11.373Z,12.37
2016-09-27T00:59:11.391Z,12.39
2016-09-27T01:00:11.405Z,12.46
2016-09-27T01:01:11.410Z,12.36
2016-09-27T01:02:11.455Z,12.39
2016-09-27T01:03:11.488Z,12.45
2016-09-27T01:04:11.487Z,12.46
2016-09-27T01:05:11.493Z,12.37
2016-09-27T01:06:11.521Z,12.39
2016-09-27T01:07:11.533Z,12.37
2016-09-27T01:08:11.557Z,12.35
2016-09-27T01:09:11.558Z,12.36
2016-09-27T01:10:11.592Z,12.4
2016-09-27T01:11:11.588Z,12.31
2016-09-27T01:12:11.625Z,12.43
2016-09-27T01:13:11.645Z,12.36
2016-09-27T01:14:11.682Z,12.35
2016-09-27T01:15:12.009Z,12.4
2016-09-27T01:16:12.009Z,12.35
2016-09-27T01:17:11.716Z,12.35
2016-09-27T01:18:11.734Z,12.45
2016-09-27T01:19:11.762Z,12.46
2016-09-27T01:20:12.110Z,12.37
2016-09-27T01:21:11.785Z,12.37
2016-09-27T01:22:11.812Z,12.37
2016-09-27T01:23:11.824Z,12.36
2016-09-27T01:24:11.839Z,12.43
2016-09-27T01:25:11.851Z,12.46
2016-09-27T01:26:11.881Z,12.42
2016-09-27T01:27:11.898Z,12.47
2016-09-27T01:28:11.920Z,12.5
2016-09-27T01:29:11.931Z,12.5
2016-09-27T01:30:11.947Z,12.49
2016-09-27T01:31:11.969Z,12.54
2016-09-27T01:32:11.987Z,12.54
2016-09-27T01:33:12.007Z,12.55
2016-09-27T01:34:12.039Z,12.49
2016-09-27T01:35:12.037Z,12.58
2016-09-27T01:36:12.062Z,12.53
2016-09-27T01:37:12.066Z,12.54
2016-09-27T01:38:12.088Z,12.47
2016-09-27T01:39:12.112Z,12.54
2016-09-27T01:40:12.137Z,12.57
2016-09-27T01:41:12.154Z,12.5
2016-09-27T01:42:12.167Z,12.5
2016-09-27T01:43:12.183Z,12.55
2016-09-27T01:44:12.206Z,12.55
2016-09-27T01:45:12.237Z,12.58
2016-09-27T01:46:12.251Z,12.55
2016-09-27T01:47:12.258Z,12.5
2016-09-27T01:48:12.272Z,12.58
2016-09-27T01:49:12.287Z,12.57
2016-09-27T01:50:12.311Z,12.53
2016-09-27T01:51:12.328Z,12.53
2016-09-27T01:52:12.344Z,12.55
2016-09-27T01:53:12.370Z,12.57
2016-09-27T01:54:12.409Z,12.53
2016-09-27T01:55:12.418Z,12.6
2016-09-27T01:56:12.777Z,12.5
2016-09-27T01:57:12.438Z,12.47
2016-09-27T01:58:12.469Z,12.5
2016-09-27T01:59:12.479Z,12.54
2016-09-27T02:00:12.502Z,12.53
2016-09-27T02:01:12.517Z,12.58
2016-09-27T02:02:12.536Z,12.53
2016-09-27T02:03:12.549Z,12.54
2016-09-27T02:04:12.579Z,12.5
2016-09-27T02:05:12.581Z,12.55
2016-09-27T02:06:12.930Z,12.54
2016-09-27T02:07:12.612Z,12.5
2016-09-27T02:08:12.648Z,12.53
2016-09-27T02:09:12.650Z,12.57
2016-09-27T02:10:12.682Z,12.55
2016-09-27T02:11:12.674Z,12.58
2016-09-27T02:12:12.707Z,12.58
2016-09-27T02:13:12.738Z,12.5
2016-09-27T02:14:12.763Z,12.57
2016-09-27T02:15:12.761Z,12.54
2016-09-27T02:16:12.793Z,12.55
2016-09-27T02:17:12.805Z,12.53
2016-09-27T02:18:12.843Z,12.6
2016-09-27T02:19:12.840Z,12.58
2016-09-27T02:20:12.877Z,12.57
2016-09-27T02:21:12.875Z,12.55
2016-09-27T02:22:12.897Z,12.53
2016-09-27T02:23:12.921Z,12.54
2016-09-27T02:24:12.941Z,12.6
2016-09-27T02:25:12.960Z,12.49
2016-09-27T02:26:12.962Z,12.45
2016-09-27T02:27:12.994Z,12.43
2016-09-27T02:28:13.026Z,12.46
2016-09-27T02:29:13.020Z,12.45
2016-09-27T02:30:13.036Z,12.4
2016-09-27T02:31:13.059Z,12.46
2016-09-27T02:32:13.086Z,12.4
2016-09-27T02:33:13.093Z,12.42
2016-09-27T02:34:13.124Z,12.42
2016-09-27T02:35:13.131Z,12.31
2016-09-27T02:36:13.163Z,12.39
2016-09-27T02:37:13.166Z,12.35
2016-09-27T02:38:13.207Z,12.29
2016-09-27T02:39:13.208Z,12.39
2016-09-27T02:40:13.564Z,12.32
2016-09-27T02:41:13.237Z,12.42
2016-09-27T02:42:13.289Z,12.39
2016-09-27T02:43:13.276Z,12.36
2016-09-27T02:44:13.292Z,12.39
2016-09-27T02:45:13.327Z,12.31
2016-09-27T02:46:13.347Z,12.47
2016-09-27T02:47:13.359Z,12.4
2016-09-27T02:48:13.373Z,12.47
2016-09-27T02:49:13.385Z,12.42
2016-09-27T02:50:13.406Z,12.47
2016-09-27T02:51:13.445Z,12.47
2016-09-27T02:52:13.445Z,12.43
2016-09-27T02:53:13.457Z,12.42
2016-09-27T02:54:13.490Z,12.43
2016-09-27T02:55:13.501Z,12.4
2016-09-27T02:56:13.523Z,12.4
2016-09-27T02:57:13.533Z,12.46
2016-09-27T02:58:13.563Z,12.46
2016-09-27T02:59:13.560Z,12.37
2016-09-27T03:00:13.597Z,12.43
2016-09-27T03:01:13.606Z,12.45
2016-09-27T03:02:13.617Z,12.42
2016-09-27T03:03:13.642Z,12.37
2016-09-27T03:04:13.664Z,12.45
2016-09-27T03:05:13.667Z,12.43
2016-09-27T03:06:13.712Z,12.4
2016-09-27T03:07:13.722Z,12.37
2016-09-27T03:08:13.746Z,12.42
2016-09-27T03:09:13.767Z,12.42
2016-09-27T03:10:13.775Z,12.43
2016-09-27T03:11:13.800Z,12.43
2016-09-27T03:12:13.808Z,12.47
2016-09-27T03:13:13.833Z,12.46
2016-09-27T03:14:13.856Z,12.45
2016-09-27T03:15:13.869Z,12.43
2016-09-27T03:16:13.886Z,12.4
2016-09-27T03:17:13.906Z,12.46
2016-09-27T03:18:13.913Z,12.46
2016-09-27T03:19:13.949Z,12.42
2016-09-27T03:20:13.957Z,12.39
2016-09-27T03:21:13.969Z,12.39
2016-09-27T03:22:13.995Z,12.31
2016-09-27T03:23:14.012Z,12.39
2016-09-27T03:24:14.027Z,12.31
2016-09-27T03:25:14.054Z,12.4
2016-09-27T03:26:14.086Z,12.35
2016-09-27T03:27:14.078Z,12.37
2016-09-27T03:28:14.123Z,12.27
2016-09-27T03:29:14.110Z,12.4
2016-09-27T03:30:14.145Z,12.32
2016-09-27T03:31:14.158Z,12.25
2016-09-27T03:32:14.178Z,12.35
2016-09-27T03:33:14.196Z,12.31
2016-09-27T03:34:14.222Z,12.36
2016-09-27T03:35:14.223Z,12.36
2016-09-27T03:36:14.247Z,12.28
2016-09-27T03:37:14.264Z,12.31
2016-09-27T03:38:14.284Z,12.21
2016-09-27T03:39:14.303Z,12.29
2016-09-27T03:40:14.320Z,12.2
2016-09-27T03:41:14.343Z,12.24
2016-09-27T03:42:14.369Z,12.17
2016-09-27T03:43:14.377Z,12.21
2016-09-27T03:44:14.390Z,12.12
2016-09-27T03:45:14.412Z,12.12
2016-09-27T03:46:14.439Z,12.17
2016-09-27T03:47:14.440Z,12.07
2016-09-27T03:48:14.459Z,12.17
2016-09-27T03:49:14.483Z,12.06
2016-09-27T03:50:14.513Z,12.06
2016-09-27T03:51:14.526Z,12.13
2016-09-27T03:52:14.534Z,12.06
2016-09-27T03:53:14.559Z,12.02
2016-09-27T03:54:14.574Z,12.13
2016-09-27T03:55:14.596Z,12.02
2016-09-27T03:56:14.629Z,12.1
2016-09-27T03:57:14.636Z,12.06
2016-09-27T03:58:14.651Z,12.13
2016-09-27T03:59:14.668Z,12.13
2016-09-27T04:01:44.383Z,12.12
2016-09-27T04:02:14.720Z,12.04
2016-09-27T04:03:14.747Z,12.02
2016-09-27T04:04:14.755Z,12.13
2016-09-27T04:05:14.785Z,12.07
2016-09-27T04:06:14.802Z,12.06
2016-09-27T04:07:14.795Z,12.18
2016-09-27T04:08:14.840Z,12.12
2016-09-27T04:09:14.845Z,12.09
2016-09-27T04:10:14.865Z,12.02
2016-09-27T04:11:14.891Z,12.03
2016-09-27T04:12:14.915Z,12.12
2016-09-27T04:13:14.914Z,12.17
2016-09-27T04:14:14.948Z,12.09
2016-09-27T04:15:14.959Z,12.1
2016-09-27T04:16:14.976Z,12.03
2016-09-27T04:17:14.991Z,12.06
2016-09-27T04:18:15.012Z,12.1
2016-09-27T04:19:15.040Z,12.04
2016-09-27T04:20:15.041Z,12.07
2016-09-27T04:21:15.054Z,12.07
2016-09-27T04:22:15.065Z,12.09
2016-09-27T04:23:15.111Z,12.13
2016-09-27T04:24:15.118Z,12.2
2016-09-27T04:25:15.144Z,12.13
2016-09-27T04:26:15.153Z,12.18
2016-09-27T04:27:15.177Z,12.18
2016-09-27T04:28:15.181Z,12.28
2016-09-27T04:29:15.209Z,12.24
2016-09-27T04:30:15.233Z,12.28
2016-09-27T04:31:15.237Z,12.21
2016-09-27T04:32:15.249Z,12.29
2016-09-27T04:33:15.278Z,12.29
2016-09-27T04:34:15.318Z,12.39
2016-09-27T04:35:15.312Z,12.25
2016-09-27T04:36:15.334Z,12.29
2016-09-27T04:37:15.338Z,12.29
2016-09-27T04:38:15.370Z,12.36
2016-09-27T04:39:15.393Z,12.36
2016-09-27T04:40:15.407Z,12.36
2016-09-27T04:41:15.432Z,12.35
2016-09-27T04:42:15.428Z,12.36
2016-09-27T04:43:15.455Z,12.42
2016-09-27T04:44:15.483Z,12.39
2016-09-27T04:45:15.503Z,12.45
2016-09-27T04:46:15.504Z,12.49
2016-09-27T04:47:15.531Z,12.53
2016-09-27T04:48:15.561Z,12.46
2016-09-27T04:49:15.574Z,12.57
2016-09-27T04:50:15.593Z,12.42
2016-09-27T04:51:15.604Z,12.45
2016-09-27T04:52:15.630Z,12.39
2016-09-27T04:53:15.645Z,12.53
2016-09-27T04:54:15.667Z,12.47
2016-09-27T04:55:15.681Z,12.5
2016-09-27T04:56:15.688Z,12.42
2016-09-27T04:57:15.723Z,12.45
2016-09-27T04:58:15.737Z,12.45
2016-09-27T04:59:15.753Z,12.47
2016-09-27T05:00:15.775Z,12.4
2016-09-27T05:01:15.786Z,12.49
2016-09-27T05:02:15.813Z,12.42
2016-09-27T05:03:15.811Z,12.4
2016-09-27T05:04:15.848Z,12.46
2016-09-27T05:05:15.856Z,12.43
2016-09-27T05:06:15.865Z,12.45
2016-09-27T05:07:15.906Z,12.49
2016-09-27T05:08:15.927Z,12.47
2016-09-27T05:09:15.944Z,12.43
2016-09-27T05:10:15.958Z,12.49
2016-09-27T05:11:15.968Z,12.55
2016-09-27T05:12:16.001Z,12.54
2016-09-27T05:13:16.012Z,12.58
2016-09-27T05:14:16.025Z,12.6
2016-09-27T05:15:16.025Z,12.62
2016-09-27T05:16:16.087Z,12.61
2016-09-27T05:17:16.077Z,12.58
2016-09-27T05:18:16.103Z,12.67
2016-09-27T05:19:16.124Z,12.68
2016-09-27T05:20:16.139Z,12.61
2016-09-27T05:21:16.149Z,12.67
2016-09-27T05:22:16.174Z,12.64
2016-09-27T05:23:16.185Z,12.67
2016-09-27T05:24:16.214Z,12.68
2016-09-27T05:25:16.218Z,12.6
2016-09-27T05:26:16.252Z,12.65
2016-09-27T05:27:16.267Z,12.7
2016-09-27T05:28:16.283Z,12.57
2016-09-27T05:29:16.290Z,12.73
2016-09-27T05:30:16.323Z,12.68
2016-09-27T05:31:16.341Z,12.72
2016-09-27T05:32:16.353Z,12.73
2016-09-27T05:33:16.354Z,12.76
2016-09-27T05:34:16.397Z,12.67
2016-09-27T05:35:16.416Z,12.65
2016-09-27T05:36:16.429Z,12.78
2016-09-27T05:37:16.434Z,12.75
2016-09-27T05:38:16.484Z,12.83
2016-09-27T05:39:16.488Z,12.83
2016-09-27T05:40:16.509Z,12.72
2016-09-27T05:41:16.521Z,12.8
2016-09-27T05:42:16.542Z,12.78
2016-09-27T05:43:16.554Z,12.75
2016-09-27T05:44:16.573Z,12.79
2016-09-27T05:45:16.593Z,12.79
2016-09-27T05:46:16.607Z,12.87
2016-09-27T05:47:16.637Z,12.93
2016-09-27T05:48:16.666Z,12.93
2016-09-27T05:49:16.664Z,12.97
2016-09-27T05:50:16.674Z,12.95
2016-09-27T05:51:16.687Z,12.98
2016-09-27T05:52:16.727Z,13.11
2016-09-27T05:53:16.740Z,13.03
2016-09-27T05:54:16.775Z,13.12
2016-09-27T05:55:16.787Z,13.2
2016-09-27T05:56:16.801Z,13.12
2016-09-27T05:57:16.813Z,13.23
2016-09-27T05:58:16.827Z,13.12
2016-09-27T05:59:16.847Z,13.22
2016-09-27T06:00:16.870Z,13.25
2016-09-27T06:01:16.886Z,13.37
2016-09-27T06:02:16.909Z,13.28
2016-09-27T06:03:16.925Z,13.44
2016-09-27T06:04:16.950Z,13.44
2016-09-27T06:05:16.976Z,13.37
2016-09-27T06:06:16.968Z,13.28
2016-09-27T06:07:16.999Z,13.5
2016-09-27T06:08:17.021Z,13.42
2016-09-27T06:09:17.040Z,13.47
2016-09-27T06:10:17.058Z,13.41
2016-09-27T06:11:17.076Z,13.44
2016-09-27T06:12:17.112Z,13.47
2016-09-27T06:13:17.109Z,13.42
2016-09-27T06:14:17.126Z,13.47
2016-09-27T06:15:17.161Z,13.41
2016-09-27T06:16:17.173Z,13.38
2016-09-27T06:17:17.193Z,13.39
2016-09-27T06:18:17.211Z,13.35
2016-09-27T06:19:17.212Z,13.27
2016-09-27T06:20:17.244Z,13.25
2016-09-27T06:21:17.257Z,13.33
2016-09-27T06:22:17.281Z,13.19
2016-09-27T06:23:17.293Z,13.2
2016-09-27T06:24:17.316Z,13.31
2016-09-27T06:25:17.321Z,13.22
2016-09-27T06:26:17.354Z,13.33
2016-09-27T06:27:17.369Z,13.3
2016-09-27T06:28:17.403Z,13.28
2016-09-27T06:29:17.406Z,13.42
2016-09-27T06:30:17.457Z,13.41
2016-09-27T06:31:17.433Z,13.35
2016-09-27T06:32:17.497Z,13.41
2016-09-27T06:33:22.507Z,13.44
2016-09-27T06:34:17.495Z,13.56
2016-09-27T06:35:17.516Z,13.63
2016-09-27T06:36:17.518Z,13.6
2016-09-27T06:37:30.291Z,13.6
2016-09-27T06:38:17.553Z,13.75
2016-09-27T06:39:17.578Z,13.68
2016-09-27T06:40:17.603Z,13.71
2016-09-27T06:41:17.619Z,13.74
2016-09-27T06:42:17.640Z,13.9
2016-09-27T06:43:17.663Z,13.81
2016-09-27T06:44:17.668Z,14.04
2016-09-27T06:45:17.726Z,14
2016-09-27T06:46:17.714Z,14
2016-09-27T06:47:17.728Z,14.04
2016-09-27T06:48:17.746Z,14.04
2016-09-27T06:49:17.763Z,14.2
2016-09-27T06:50:17.805Z,14.22
2016-09-27T06:51:17.815Z,14.33
2016-09-27T06:52:17.841Z,14.4
2016-09-27T06:53:17.851Z,14.37
2016-09-27T06:54:17.867Z,14.4
2016-09-27T06:55:17.879Z,14.48
2016-09-27T06:56:18.187Z,14.58
2016-09-27T06:57:17.925Z,14.53
2016-09-27T06:58:17.955Z,14.63
2016-09-27T06:59:17.967Z,14.7
2016-09-27T07:00:17.983Z,14.72
2016-09-27T07:01:18.016Z,14.77
2016-09-27T07:02:18.018Z,14.88
2016-09-27T07:03:18.043Z,14.94
2016-09-27T07:04:18.064Z,15.07
2016-09-27T07:05:18.080Z,15.06
2016-09-27T07:06:18.108Z,15.07
2016-09-27T07:07:18.119Z,15.17
2016-09-27T07:08:18.132Z,15.21
2016-09-27T07:09:18.155Z,15.25
2016-09-27T07:10:28.474Z,15.29
2016-09-27T07:11:18.194Z,15.42
2016-09-27T07:12:18.222Z,15.37
2016-09-27T07:13:18.240Z,15.43
2016-09-27T07:14:18.254Z,15.61
2016-09-27T07:15:18.274Z,15.64
2016-09-27T07:16:18.295Z,15.7
2016-09-27T07:17:18.313Z,15.77
2016-09-27T07:18:18.345Z,15.79
2016-09-27T07:19:18.347Z,15.82
2016-09-27T07:20:18.402Z,15.91
2016-09-27T07:21:18.400Z,15.92
2016-09-27T07:22:18.422Z,15.97
2016-09-27T07:23:18.443Z,16.01
2016-09-27T07:24:18.469Z,16.08
2016-09-27T07:25:18.474Z,16.1
2016-09-27T07:26:18.505Z,16.16
2016-09-27T07:27:18.512Z,16.29
2016-09-27T07:28:18.534Z,16.36
2016-09-27T07:29:18.557Z,16.38
2016-09-27T07:30:18.590Z,16.54
2016-09-27T07:31:18.599Z,16.53
2016-09-27T07:32:18.613Z,16.65
2016-09-27T07:33:18.641Z,16.53
2016-09-27T07:34:18.669Z,16.51
2016-09-27T07:35:18.688Z,16.56
2016-09-27T07:36:18.706Z,16.65
2016-09-27T07:37:18.726Z,16.72
2016-09-27T07:38:18.745Z,16.69
2016-09-27T07:39:18.767Z,16.72
2016-09-27T07:40:18.783Z,16.78
2016-09-27T07:41:18.798Z,16.81
2016-09-27T07:42:18.832Z,16.79
2016-09-27T07:43:18.838Z,16.78
2016-09-27T07:44:18.864Z,16.78
2016-09-27T07:45:18.884Z,16.81
2016-09-27T07:46:18.905Z,16.84
2016-09-27T07:47:18.930Z,16.76
2016-09-27T07:48:18.948Z,16.75
2016-09-27T07:49:18.965Z,16.86
2016-09-27T07:50:18.981Z,16.86
2016-09-27T07:51:19.002Z,16.83
2016-09-27T07:52:19.046Z,16.81
2016-09-27T07:53:19.045Z,16.79
2016-09-27T07:54:19.074Z,16.84
2016-09-27T07:55:19.083Z,16.71
2016-09-27T07:56:19.113Z,16.69
2016-09-27T07:57:19.131Z,16.71
2016-09-27T07:58:19.145Z,16.74
2016-09-27T07:59:19.168Z,16.76
2016-09-27T08:00:19.187Z,16.86
2016-09-27T08:01:19.208Z,16.93
2016-09-27T08:02:19.232Z,17.06
2016-09-27T08:03:19.259Z,17.06
2016-09-27T08:04:19.278Z,17.14
2016-09-27T08:05:19.298Z,17.26
2016-09-27T08:06:19.322Z,17.27
2016-09-27T08:07:19.337Z,17.24
2016-09-27T08:08:19.358Z,17.41
2016-09-27T08:09:19.383Z,17.38
2016-09-27T08:10:19.412Z,17.33
2016-09-27T08:11:19.419Z,17.41
2016-09-27T08:12:19.456Z,17.45
2016-09-27T08:13:19.462Z,17.57
2016-09-27T08:14:19.474Z,17.56
2016-09-27T08:15:19.501Z,17.67
2016-09-27T08:16:19.526Z,17.72
2016-09-27T08:17:19.545Z,17.92
2016-09-27T08:18:19.563Z,17.94
2016-09-27T08:19:19.585Z,18.03
2016-09-27T08:20:19.617Z,18.05
2016-09-27T08:21:19.966Z,18.08
2016-09-27T08:22:19.644Z,18.18
2016-09-27T08:23:19.679Z,18.19
2016-09-27T08:24:19.700Z,18.2
2016-09-27T08:25:19.713Z,18.29
2016-09-27T08:26:19.734Z,18.33
2016-09-27T08:27:19.750Z,18.33
2016-09-27T08:28:19.776Z,18.35
2016-09-27T08:29:19.786Z,18.38
2016-09-27T08:30:19.821Z,18.41
2016-09-27T08:31:19.846Z,18.37
2016-09-27T08:32:19.856Z,18.41
2016-09-27T08:33:19.886Z,18.44
2016-09-27T08:34:19.909Z,18.44
2016-09-27T08:35:19.921Z,18.55
2016-09-27T08:36:19.948Z,18.5
2016-09-27T08:37:19.967Z,18.56
2016-09-27T08:38:20.000Z,18.58
2016-09-27T08:39:20.009Z,18.65
2016-09-27T08:40:20.043Z,18.7
2016-09-27T08:41:20.050Z,18.66
2016-09-27T08:42:20.083Z,18.7
2016-09-27T08:43:20.093Z,18.8
2016-09-27T08:44:20.127Z,18.88
2016-09-27T08:45:20.136Z,18.83
2016-09-27T08:46:20.170Z,18.86
2016-09-27T08:47:20.242Z,18.8
2016-09-27T08:48:20.212Z,18.92
2016-09-27T08:49:20.231Z,18.77
2016-09-27T08:50:20.270Z,18.84
2016-09-27T08:51:20.273Z,18.78
2016-09-27T08:52:20.297Z,18.74
2016-09-27T08:53:20.309Z,18.8
2016-09-27T08:54:20.666Z,18.75
2016-09-27T08:55:20.350Z,18.77
2016-09-27T08:56:20.382Z,18.96
2016-09-27T08:57:20.394Z,18.96
2016-09-27T08:58:20.418Z,18.81
2016-09-27T08:59:20.441Z,18.96
2016-09-27T09:00:20.468Z,18.98
2016-09-27T09:01:20.490Z,19.07
2016-09-27T09:02:20.514Z,19.02
2016-09-27T09:03:20.527Z,19
2016-09-27T09:04:20.548Z,19.04
2016-09-27T09:05:20.569Z,18.99
2016-09-27T09:06:20.596Z,18.99
2016-09-27T09:07:20.623Z,19.02
2016-09-27T09:08:20.640Z,19.11
2016-09-27T09:09:20.660Z,19.18
2016-09-27T09:10:20.669Z,19.33
2016-09-27T09:11:20.698Z,19.26
2016-09-27T09:12:20.719Z,19.3
2016-09-27T09:13:20.751Z,19.39
2016-09-27T09:14:20.759Z,19.4
2016-09-27T09:15:20.783Z,19.49
2016-09-27T09:16:20.806Z,19.47
2016-09-27T09:17:20.840Z,19.55
2016-09-27T09:18:20.845Z,19.56
2016-09-27T09:19:20.875Z,19.62
2016-09-27T09:20:20.906Z,19.63
2016-09-27T09:21:20.924Z,19.67
2016-09-27T09:22:20.949Z,19.76
2016-09-27T09:23:20.960Z,19.7
2016-09-27T09:24:20.977Z,19.63
2016-09-27T09:25:21.011Z,19.64
2016-09-27T09:26:21.029Z,19.63
2016-09-27T09:27:21.047Z,19.63
2016-09-27T09:28:21.078Z,19.69
2016-09-27T09:29:21.088Z,19.7
2016-09-27T09:30:21.125Z,19.66
2016-09-27T09:31:21.135Z,19.71
2016-09-27T09:32:21.160Z,19.71
2016-09-27T09:33:21.185Z,19.82
2016-09-27T09:34:21.209Z,19.89
2016-09-27T09:35:21.239Z,19.96
2016-09-27T09:36:21.251Z,19.85
2016-09-27T09:37:21.270Z,19.85
2016-09-27T09:38:21.296Z,19.85
2016-09-27T09:39:21.316Z,19.67
2016-09-27T09:40:21.335Z,19.71
2016-09-27T09:41:21.351Z,19.73
2016-09-27T09:42:21.383Z,19.71
2016-09-27T09:43:21.410Z,19.73
2016-09-27T09:44:21.417Z,19.64
2016-09-27T09:45:21.447Z,19.49
2016-09-27T09:46:21.483Z,19.51
2016-09-27T09:47:21.489Z,19.66
2016-09-27T09:48:21.522Z,19.73
2016-09-27T09:49:21.536Z,19.82
2016-09-27T09:50:21.560Z,19.86
2016-09-27T09:51:21.578Z,19.96
2016-09-27T09:52:21.595Z,20.03
2016-09-27T09:53:21.621Z,20.02
2016-09-27T09:54:21.646Z,20.16
2016-09-27T09:55:21.663Z,20.25
2016-09-27T09:56:21.688Z,20.37
2016-09-27T09:57:21.708Z,20.37
2016-09-27T09:58:21.736Z,20.51
2016-09-27T09:59:21.755Z,20.59
2016-09-27T10:00:21.775Z,20.5
2016-09-27T10:01:21.799Z,20.41
2016-09-27T10:02:21.820Z,20.24
2016-09-27T10:03:21.844Z,20.14
2016-09-27T10:04:21.862Z,20.16
2016-09-27T10:05:21.883Z,20.09
2016-09-27T10:06:21.919Z,20.07
2016-09-27T10:07:21.951Z,20.03
2016-09-27T10:08:21.971Z,20.07
2016-09-27T10:09:21.986Z,20
2016-09-27T10:10:22.015Z,20.03
2016-09-27T10:11:22.032Z,20.03
2016-09-27T10:12:22.063Z,20.13
2016-09-27T10:13:22.066Z,20.09
2016-09-27T10:14:22.102Z,20.09
2016-09-27T10:15:22.120Z,20.07
2016-09-27T10:16:22.132Z,20.03
2016-09-27T10:17:22.167Z,19.96
2016-09-27T10:18:22.545Z,20.03
2016-09-27T10:19:22.215Z,20.1
2016-09-27T10:20:22.221Z,20.04
2016-09-27T10:21:22.251Z,20.04
2016-09-27T10:22:22.323Z,20
2016-09-27T10:23:22.325Z,20.03
2016-09-27T10:24:22.367Z,20.03
2016-09-27T10:25:22.368Z,20.22
2016-09-27T10:26:22.415Z,20.19
2016-09-27T10:27:22.422Z,20.25
2016-09-27T10:28:22.781Z,20.39
2016-09-27T10:29:22.449Z,20.51
2016-09-27T10:30:22.452Z,20.81
2016-09-27T10:31:22.460Z,20.93
2016-09-27T10:32:22.547Z,21.06
2016-09-27T10:33:22.530Z,21.25
2016-09-27T10:34:22.560Z,21.39
2016-09-27T10:35:22.599Z,21.6
2016-09-27T10:36:22.587Z,21.55
2016-09-27T10:37:22.602Z,21.57
2016-09-27T10:38:22.641Z,21.52
2016-09-27T10:39:22.654Z,21.45
2016-09-27T10:40:22.671Z,21.42
2016-09-27T10:41:22.689Z,21.35
2016-09-27T10:42:22.731Z,21.33
2016-09-27T10:43:22.738Z,21.27
2016-09-27T10:44:22.769Z,21.27
2016-09-27T10:45:22.780Z,21.3
2016-09-27T10:46:22.807Z,21.27
2016-09-27T10:47:22.832Z,21.35
2016-09-27T10:48:22.848Z,21.32
2016-09-27T10:49:22.879Z,21.27
2016-09-27T10:50:22.909Z,21.36
2016-09-27T10:51:22.918Z,21.3
2016-09-27T10:52:22.949Z,21.3
2016-09-27T10:53:22.967Z,21.3
2016-09-27T10:54:22.988Z,21.42
2016-09-27T10:55:23.009Z,21.46
2016-09-27T10:56:23.041Z,21.4
2016-09-27T10:57:23.058Z,21.46
2016-09-27T10:58:23.090Z,21.39
2016-09-27T10:59:23.095Z,21.43
2016-09-27T11:00:23.120Z,21.5
2016-09-27T11:01:23.149Z,21.52
2016-09-27T11:02:23.178Z,21.46
2016-09-27T11:03:23.195Z,21.6
2016-09-27T11:04:23.221Z,21.55
2016-09-27T11:05:23.238Z,21.58
2016-09-27T11:06:23.269Z,21.61
2016-09-27T11:07:23.290Z,21.72
2016-09-27T11:08:23.301Z,21.82
2016-09-27T11:09:23.348Z,21.88
2016-09-27T11:10:23.360Z,21.82
2016-09-27T11:11:23.381Z,21.76
2016-09-27T11:12:23.407Z,21.72
2016-09-27T11:13:23.431Z,21.57
2016-09-27T11:14:23.457Z,21.54
2016-09-27T11:15:23.465Z,21.39
2016-09-27T11:16:23.498Z,21.29
2016-09-27T11:17:23.519Z,21.3
2016-09-27T11:18:23.548Z,21.37
2016-09-27T11:19:23.564Z,21.39
2016-09-27T11:20:23.590Z,21.46
2016-09-27T11:21:23.610Z,21.46
2016-09-27T11:22:23.643Z,21.54
2016-09-27T11:23:23.662Z,21.4
2016-09-27T11:24:23.677Z,21.42
2016-09-27T11:25:23.694Z,21.37
2016-09-27T11:26:23.731Z,21.54
2016-09-27T11:27:23.754Z,21.43
2016-09-27T11:28:23.767Z,21.51
2016-09-27T11:29:23.793Z,21.46
2016-09-27T11:30:23.821Z,21.5
2016-09-27T11:31:23.827Z,21.52
2016-09-27T11:32:23.877Z,21.45
2016-09-27T11:33:23.886Z,21.46
2016-09-27T11:34:23.905Z,21.37
2016-09-27T11:35:23.933Z,21.4
2016-09-27T11:36:23.971Z,21.32
2016-09-27T11:37:23.984Z,21.39
2016-09-27T11:38:23.996Z,21.58
2016-09-27T11:39:24.032Z,21.6
2016-09-27T11:40:24.046Z,21.61
2016-09-27T11:41:24.067Z,21.72
2016-09-27T11:42:24.097Z,21.82
2016-09-27T11:43:24.109Z,21.93
2016-09-27T11:45:24.159Z,22.08
2016-09-27T11:46:24.190Z,21.95
2016-09-27T11:47:24.206Z,21.77
2016-09-27T11:48:24.229Z,21.75
2016-09-27T11:49:24.259Z,21.62
2016-09-27T11:50:24.274Z,21.6
2016-09-27T11:51:24.299Z,21.5
2016-09-27T11:52:24.319Z,21.48
2016-09-27T11:53:24.333Z,21.27
2016-09-27T11:54:24.369Z,21.4
2016-09-27T11:55:24.392Z,21.43
2016-09-27T11:56:24.413Z,21.52
2016-09-27T11:57:24.439Z,21.55
2016-09-27T11:58:24.459Z,21.66
2016-09-27T11:59:24.482Z,21.73
2016-09-27T12:00:24.514Z,21.76
2016-09-27T12:01:24.530Z,21.83
2016-09-27T12:02:24.564Z,21.98
2016-09-27T12:03:24.589Z,22.02
2016-09-27T12:04:24.610Z,22.18
2016-09-27T12:05:24.631Z,22.2
2016-09-27T12:06:24.668Z,22.28
2016-09-27T12:07:24.681Z,22.32
2016-09-27T12:08:24.700Z,22.3
2016-09-27T12:09:24.780Z,22.26
2016-09-27T12:10:24.740Z,22.32
2016-09-27T12:11:24.771Z,22.36
2016-09-27T12:12:24.801Z,22.35
2016-09-27T12:13:24.821Z,22.3
2016-09-27T12:14:24.838Z,22.41
2016-09-27T12:15:24.849Z,22.53
2016-09-27T12:16:24.887Z,22.48
2016-09-27T12:17:24.907Z,22.62
2016-09-27T12:18:24.930Z,22.75
2016-09-27T12:19:24.958Z,22.83
2016-09-27T12:20:24.979Z,22.81
2016-09-27T12:21:25.009Z,22.93
2016-09-27T12:22:25.034Z,22.98
2016-09-27T12:23:25.045Z,23.08
2016-09-27T12:24:25.078Z,23.06
2016-09-27T12:25:25.109Z,23.12
2016-09-27T12:26:25.124Z,23.23
2016-09-27T12:27:25.157Z,23.27
2016-09-27T12:28:25.173Z,23.31
2016-09-27T12:29:25.193Z,23.34
2016-09-27T12:30:25.200Z,23.31
2016-09-27T12:31:25.231Z,23.28
2016-09-27T12:32:25.262Z,23.31
2016-09-27T12:33:25.292Z,23.41
2016-09-27T12:34:25.311Z,23.41
2016-09-27T12:35:25.339Z,23.47
2016-09-27T12:36:25.352Z,23.5
2016-09-27T12:37:25.387Z,23.66
2016-09-27T12:38:25.418Z,23.84
2016-09-27T12:39:25.442Z,23.86
2016-09-27T12:40:25.458Z,23.83
2016-09-27T12:41:25.497Z,23.84
2016-09-27T12:42:25.489Z,23.78
2016-09-27T12:43:25.528Z,23.84
2016-09-27T12:44:25.802Z,23.98
2016-09-27T12:45:25.929Z,23.93
2016-09-27T12:46:25.764Z,23.91
2016-09-27T12:47:25.754Z,23.92
2016-09-27T12:48:25.807Z,23.91
2016-09-27T12:49:25.859Z,23.81
2016-09-27T12:50:25.891Z,23.66
2016-09-27T12:51:25.876Z,23.47
2016-09-27T12:52:25.933Z,23.36
2016-09-27T12:53:26.010Z,23.24
2016-09-27T12:54:26.094Z,23.2
2016-09-27T12:55:26.030Z,23.06
2016-09-27T12:56:26.059Z,22.91
2016-09-27T12:57:26.099Z,22.93
2016-09-27T12:58:26.109Z,22.8